createdAt,value
2017-11-11T00:01:58.314Z,5.93
2017-11-11T00:04:30.268Z,14.02
2017-11-11T00:06:58.101Z,22.05
2017-11-11T00:09:29.655Z,27.83
2017-11-11T00:12:00.780Z,33.72
2017-11-11T00:14:39.478Z,18.85
2017-11-11T00:17:09.454Z,16.80
2017-11-11T00:19:37.893Z,11.90
2017-11-11T00:22:09.124Z,7.10
2017-11-11T00:24:41.212Z,6.40
2017-11-11T00:27:12.470Z,5.50
2017-11-11T00:29:40.959Z,6.53
2017-11-11T00:32:09.839Z,3.92
2017-11-11T00:34:37.615Z,5.37
2017-11-11T00:37:05.353Z,7.75
2017-11-11T00:39:34.669Z,4.97
2017-11-11T00:42:03.323Z,5.25
2017-11-11T00:44:32.160Z,6.95
2017-11-11T00:47:00.861Z,10.70
2017-11-11T00:49:32.817Z,7.30
2017-11-11T00:52:11.893Z,6.97
2017-11-11T00:54:41.353Z,11.43
2017-11-11T00:57:10.889Z,10.68
2017-11-11T00:59:41.047Z,9.57
2017-11-11T01:02:10.051Z,7.47
2017-11-11T01:04:43.440Z,8.73
2017-11-11T01:07:19.467Z,11.35
2017-11-11T01:09:48.292Z,12.43
2017-11-11T01:12:16.054Z,8.00
2017-11-11T01:14:44.066Z,12.35
2017-11-11T01:17:13.847Z,9.50
2017-11-11T01:19:46.242Z,12.05
2017-11-11T01:22:14.131Z,12.18
2017-11-11T01:24:41.993Z,9.77
2017-11-11T01:27:09.934Z,13.68
2017-11-11T01:29:37.711Z,12.25
2017-11-11T01:32:05.596Z,10.18
2017-11-11T01:34:33.746Z,12.05
2017-11-11T01:37:01.740Z,12.75
2017-11-11T01:39:29.463Z,12.05
2017-11-11T01:41:58.418Z,10.93
2017-11-11T01:44:26.119Z,11.70
2017-11-11T01:46:53.890Z,15.57
2017-11-11T01:49:22.173Z,11.63
2017-11-11T01:51:50.715Z,12.35
2017-11-11T01:54:18.403Z,11.65
2017-11-11T01:56:46.099Z,12.45
2017-11-11T01:59:14.616Z,10.07
2017-11-11T02:01:43.036Z,10.38
2017-11-11T02:04:22.251Z,11.90
2017-11-11T02:06:50.613Z,11.93
2017-11-11T02:09:18.687Z,12.43
2017-11-11T02:11:46.675Z,11.15
2017-11-11T02:14:14.347Z,15.77
2017-11-11T02:16:44.957Z,13.35
2017-11-11T02:19:16.193Z,11.40
2017-11-11T02:21:45.632Z,9.70
2017-11-11T02:24:14.883Z,7.32
2017-11-11T02:26:42.913Z,18.25
2017-11-11T02:29:12.622Z,11.45
2017-11-11T02:31:44.242Z,11.27
2017-11-11T02:34:16.136Z,12.95
2017-11-11T02:36:45.636Z,13.25
2017-11-11T02:39:15.076Z,10.15
2017-11-11T02:41:47.227Z,9.75
2017-11-11T02:44:24.775Z,12.18
2017-11-11T02:46:55.470Z,8.32
2017-11-11T02:49:23.880Z,13.32
2017-11-11T02:51:52.647Z,10.32
2017-11-11T02:54:21.816Z,15.90
2017-11-11T02:56:51.733Z,10.63
2017-11-11T02:59:19.767Z,14.73
2017-11-11T03:01:52.180Z,8.60
2017-11-11T03:04:21.304Z,9.35
2017-11-11T03:06:52.279Z,13.45
2017-11-11T03:09:21.161Z,11.63
2017-11-11T03:11:50.395Z,10.30
2017-11-11T03:14:18.315Z,14.50
2017-11-11T03:16:46.245Z,12.30
2017-11-11T03:19:14.312Z,16.05
2017-11-11T03:21:42.086Z,12.50
2017-11-11T03:24:11.964Z,11.73
2017-11-11T03:26:43.464Z,9.70
2017-11-11T03:29:13.879Z,9.52
2017-11-11T03:31:41.931Z,8.93
2017-11-11T03:34:10.501Z,10.73
2017-11-11T03:36:39.328Z,11.80
2017-11-11T03:39:07.265Z,12.63
2017-11-11T03:41:35.431Z,15.07
2017-11-11T03:44:07.079Z,8.25
2017-11-11T03:46:35.381Z,12.95
2017-11-11T03:49:04.351Z,13.38
2017-11-11T03:51:35.987Z,13.95
2017-11-11T03:54:04.261Z,15.77
2017-11-11T03:56:34.916Z,10.68
2017-11-11T03:59:03.299Z,11.10
2017-11-11T04:01:32.393Z,11.30
2017-11-11T04:04:02.174Z,11.85
2017-11-11T04:06:30.468Z,12.18
2017-11-11T04:09:01.591Z,16.62
2017-11-11T04:11:32.810Z,8.50
2017-11-11T04:14:00.640Z,7.95
2017-11-11T04:16:29.751Z,15.75
2017-11-11T04:18:58.126Z,14.07
2017-11-11T04:21:26.653Z,12.35
2017-11-11T04:23:55.171Z,8.55
2017-11-11T04:26:23.726Z,10.57
2017-11-11T04:28:52.782Z,7.95
2017-11-11T04:31:21.293Z,6.32
